createdAt,value
2022-12-28T00:01:50.862Z,8.00
2022-12-28T00:04:18.489Z,8.00
2022-12-28T00:06:47.731Z,8.00
2022-12-28T00:09:15.547Z,8.00
2022-12-28T00:11:44.076Z,8.10
2022-12-28T00:14:16.217Z,8.10
2022-12-28T00:16:45.323Z,8.10
2022-12-28T00:19:17.175Z,8.10
2022-12-28T00:21:46.140Z,8.10
2022-12-28T00:24:24.578Z,8.10
2022-12-28T00:26:52.565Z,8.10
2022-12-28T00:31:48.418Z,8.10
2022-12-28T00:34:16.179Z,8.00
2022-12-28T00:37:08.484Z,8.00
2022-12-28T00:39:31.809Z,8.00
2022-12-28T00:42:00.724Z,7.90
2022-12-28T00:44:28.504Z,7.90
2022-12-28T00:46:56.286Z,7.90
2022-12-28T00:49:24.132Z,7.80
2022-12-28T00:51:53.844Z,7.80
2022-12-28T00:54:21.669Z,7.70
2022-12-28T00:56:49.371Z,7.70
2022-12-28T00:59:17.522Z,7.70
2022-12-28T01:01:45.412Z,7.60
2022-12-28T01:04:15.009Z,7.40
2022-12-28T01:06:42.564Z,7.40
2022-12-28T01:09:10.234Z,7.30
2022-12-28T01:11:38.093Z,7.20
2022-12-28T01:14:05.679Z,7.20
2022-12-28T01:16:36.195Z,7.10
2022-12-28T01:19:06.859Z,7.00
2022-12-28T01:21:36.240Z,7.00
2022-12-28T01:24:05.591Z,7.00
2022-12-28T01:26:33.639Z,7.10
2022-12-28T01:29:01.701Z,7.10
2022-12-28T01:31:33.433Z,7.20
2022-12-28T01:34:02.199Z,7.10
2022-12-28T01:36:32.393Z,7.20
2022-12-28T01:39:03.885Z,7.20
2022-12-28T01:41:35.906Z,7.20
2022-12-28T01:44:03.528Z,7.20
2022-12-28T01:46:41.634Z,7.20
2022-12-28T01:49:38.075Z,7.20
2022-12-28T01:52:26.933Z,7.20
2022-12-28T01:55:14.914Z,7.20
2022-12-28T01:57:54.531Z,7.20
2022-12-28T02:00:22.983Z,7.20
2022-12-28T02:03:18.392Z,7.20
2022-12-28T02:05:49.910Z,7.10
2022-12-28T02:08:26.681Z,7.20
2022-12-28T02:10:55.176Z,7.10
2022-12-28T02:13:24.848Z,7.00
2022-12-28T02:15:52.791Z,7.00
2022-12-28T02:18:22.283Z,7.00
2022-12-28T02:21:05.206Z,6.80
2022-12-28T02:24:03.858Z,6.80
2022-12-28T02:26:49.749Z,6.80
2022-12-28T02:29:29.291Z,6.80
2022-12-28T02:32:21.883Z,6.80
2022-12-28T02:35:33.086Z,6.80
2022-12-28T02:38:26.433Z,6.70
2022-12-28T02:41:19.790Z,6.80
2022-12-28T02:43:47.778Z,6.80
2022-12-28T02:46:41.589Z,6.70
2022-12-28T02:49:43.013Z,6.70
2022-12-28T02:52:29.506Z,6.70
2022-12-28T02:55:41.618Z,6.70
2022-12-28T02:58:21.354Z,6.70
2022-12-28T03:01:24.485Z,6.70
2022-12-28T03:04:15.956Z,6.80
2022-12-28T03:07:11.398Z,6.90
2022-12-28T03:10:02.091Z,6.80
2022-12-28T03:12:36.699Z,6.90
2022-12-28T03:15:31.965Z,7.00
2022-12-28T03:18:35.327Z,7.00
2022-12-28T03:21:26.037Z,7.00
2022-12-28T03:24:15.278Z,7.10
2022-12-28T03:27:09.365Z,7.10
2022-12-28T03:30:19.906Z,7.20
2022-12-28T03:32:49.191Z,7.20
2022-12-28T03:35:19.923Z,7.10
2022-12-28T03:37:56.593Z,7.10
2022-12-28T03:40:34.021Z,7.20
2022-12-28T03:43:29.094Z,7.20
2022-12-28T03:46:02.351Z,7.20
2022-12-28T03:48:33.754Z,7.20
2022-12-28T03:51:02.544Z,7.20
2022-12-28T03:53:40.613Z,7.20
2022-12-28T03:56:14.672Z,7.10
2022-12-28T03:58:45.116Z,7.20
2022-12-28T04:01:14.665Z,7.20
2022-12-28T04:03:43.131Z,7.20
2022-12-28T04:06:13.576Z,7.20
2022-12-28T04:08:41.260Z,7.10
2022-12-28T04:11:09.659Z,7.10
2022-12-28T04:13:37.424Z,7.10
2022-12-28T04:16:12.358Z,7.10
2022-12-28T04:18:42.104Z,7.00
2022-12-28T04:21:12.938Z,7.00
2022-12-28T04:23:43.140Z,7.00
2022-12-28T04:26:19.235Z,6.90
2022-12-28T04:28:49.432Z,6.90
2022-12-28T04:31:35.724Z,6.80
2022-12-28T04:34:10.328Z,6.80
2022-12-28T04:36:47.272Z,6.60
2022-12-28T04:39:18.675Z,6.60
2022-12-28T04:41:46.514Z,6.50
2022-12-28T04:44:14.136Z,6.40
2022-12-28T04:46:41.932Z,6.30
2022-12-28T04:49:09.572Z,6.40
2022-12-28T04:51:37.286Z,6.30
2022-12-28T04:54:05.012Z,6.30
2022-12-28T04:56:32.779Z,6.30
2022-12-28T04:59:01.241Z,6.30
2022-12-28T05:01:29.320Z,6.30
2022-12-28T05:03:59.629Z,6.30
2022-12-28T05:06:29.405Z,6.30
2022-12-28T05:08:57.846Z,6.30
2022-12-28T05:11:28.853Z,6.30
2022-12-28T05:13:56.777Z,6.30
2022-12-28T05:16:27.182Z,6.30
2022-12-28T05:18:57.159Z,6.30
2022-12-28T05:21:26.896Z,6.30
2022-12-28T05:23:55.457Z,6.40
2022-12-28T05:26:25.309Z,6.30
2022-12-28T05:28:53.234Z,6.30
2022-12-28T05:31:22.009Z,6.30
2022-12-28T05:33:50.283Z,6.30
2022-12-28T05:36:20.938Z,6.30
2022-12-28T05:38:48.811Z,6.30
2022-12-28T05:41:21.928Z,6.30
2022-12-28T05:43:49.697Z,6.30
2022-12-28T05:46:26.221Z,6.30
2022-12-28T05:48:57.595Z,6.30
2022-12-28T05:51:30.820Z,6.30
2022-12-28T05:54:00.213Z,6.30
2022-12-28T05:56:29.490Z,6.30
2022-12-28T05:59:02.718Z,6.30
2022-12-28T06:01:33.604Z,6.30
2022-12-28T06:04:03.703Z,6.20
2022-12-28T06:06:32.868Z,6.20
2022-12-28T06:09:02.084Z,6.20
2022-12-28T06:11:30.856Z,6.20
2022-12-28T06:13:59.216Z,6.20
2022-12-28T06:16:29.940Z,6.10
2022-12-28T06:18:58.871Z,6.10
2022-12-28T06:21:31.783Z,6.10
2022-12-28T06:24:00.583Z,6.10
2022-12-28T06:26:30.680Z,6.10
2022-12-28T06:28:59.379Z,6.10
2022-12-28T06:31:32.191Z,6.10
2022-12-28T06:34:01.399Z,6.10
2022-12-28T06:36:36.406Z,6.10
2022-12-28T06:39:06.709Z,6.10
2022-12-28T06:41:34.915Z,6.10
2022-12-28T06:44:05.593Z,6.10
2022-12-28T06:46:33.683Z,6.20
2022-12-28T06:49:01.270Z,6.30
2022-12-28T06:51:31.650Z,6.30
2022-12-28T06:53:59.322Z,6.30
2022-12-28T06:56:32.152Z,6.30
2022-12-28T06:59:03.205Z,6.40
2022-12-28T07:01:36.444Z,6.40
2022-12-28T07:04:05.722Z,6.40
2022-12-28T07:06:51.481Z,6.40
2022-12-28T07:09:19.258Z,6.40
2022-12-28T07:11:50.462Z,6.50
2022-12-28T07:14:19.017Z,6.50
2022-12-28T07:16:48.147Z,6.40
2022-12-28T07:19:15.740Z,6.40
2022-12-28T07:21:43.498Z,6.50
2022-12-28T07:24:11.367Z,6.50
2022-12-28T07:26:39.448Z,6.50
2022-12-28T07:29:08.556Z,6.50
2022-12-28T07:31:44.857Z,6.50
2022-12-28T07:34:15.286Z,6.60
2022-12-28T07:36:43.860Z,6.50
2022-12-28T07:39:11.617Z,6.50
2022-12-28T07:41:39.284Z,6.50
2022-12-28T07:44:07.413Z,6.50
2022-12-28T07:46:37.276Z,6.50
2022-12-28T07:49:05.433Z,6.60
2022-12-28T07:51:35.627Z,6.60
2022-12-28T07:54:04.442Z,6.60
2022-12-28T07:59:05.155Z,6.60
2022-12-28T08:01:35.586Z,6.60
2022-12-28T08:04:09.349Z,6.60
2022-12-28T08:06:39.919Z,6.70
2022-12-28T08:09:08.963Z,6.70
2022-12-28T08:11:39.245Z,6.70
2022-12-28T08:14:07.780Z,6.80
2022-12-28T08:16:41.137Z,6.80
2022-12-28T08:19:09.720Z,6.80
2022-12-28T08:21:40.409Z,6.80
2022-12-28T08:24:12.967Z,6.90
2022-12-28T08:26:41.556Z,6.90
2022-12-28T08:29:14.194Z,7.00
2022-12-28T08:31:44.307Z,7.00
2022-12-28T08:34:15.757Z,7.00
2022-12-28T08:36:43.376Z,7.10
2022-12-28T08:39:11.167Z,7.10
2022-12-28T08:41:38.843Z,7.20
2022-12-28T08:44:06.824Z,7.10
2022-12-28T08:46:36.204Z,7.20
2022-12-28T08:49:05.895Z,7.20
2022-12-28T08:51:42.512Z,7.40
2022-12-28T08:54:13.251Z,7.30
2022-12-28T08:56:42.777Z,7.40
2022-12-28T08:59:14.543Z,7.40
2022-12-28T09:01:44.623Z,7.40
2022-12-28T09:04:18.582Z,7.50
2022-12-28T09:06:46.902Z,7.50
2022-12-28T09:09:17.431Z,7.60
2022-12-28T09:11:45.833Z,7.60
2022-12-28T09:14:22.148Z,7.70
2022-12-28T09:16:50.931Z,7.70
2022-12-28T09:19:18.686Z,7.80
2022-12-28T09:24:17.173Z,8.00
2022-12-28T09:26:45.068Z,8.00
2022-12-28T09:29:14.490Z,8.10
2022-12-28T09:31:44.317Z,8.20
2022-12-28T09:37:02.891Z,8.30
2022-12-28T09:39:30.868Z,8.30
2022-12-28T09:42:25.629Z,8.50
2022-12-28T09:45:02.960Z,8.50
2022-12-28T09:47:37.166Z,8.60
2022-12-28T09:50:17.108Z,8.60
2022-12-28T09:52:53.913Z,8.70
2022-12-28T09:55:22.286Z,8.80
2022-12-28T09:57:56.969Z,8.80
2022-12-28T10:00:39.487Z,8.90
2022-12-28T10:03:20.762Z,8.90
2022-12-28T10:05:51.343Z,8.90
2022-12-28T10:08:22.599Z,9.00
2022-12-28T10:10:51.843Z,9.10
2022-12-28T10:16:23.730Z,9.20
2022-12-28T10:18:52.037Z,9.20
2022-12-28T10:21:25.397Z,9.30
2022-12-28T10:26:47.740Z,9.40
2022-12-28T10:29:23.968Z,9.40
2022-12-28T10:32:02.222Z,9.50
2022-12-28T10:38:36.626Z,9.60
2022-12-28T10:44:39.330Z,9.70
2022-12-28T10:47:47.060Z,9.60
2022-12-28T10:50:41.486Z,9.70
2022-12-28T10:53:18.944Z,9.70
2022-12-28T10:58:30.849Z,9.70
2022-12-28T11:01:06.857Z,9.70
2022-12-28T11:03:37.710Z,9.70
2022-12-28T11:06:27.068Z,9.70
2022-12-28T11:09:26.154Z,9.70
2022-12-28T11:11:56.044Z,9.80
2022-12-28T11:14:36.446Z,9.80
2022-12-28T11:17:25.240Z,9.80
2022-12-28T11:20:01.900Z,9.80
2022-12-28T11:22:30.589Z,9.80
2022-12-28T11:25:00.767Z,9.80
2022-12-28T11:27:28.754Z,9.90
2022-12-28T11:29:59.556Z,9.80
2022-12-28T11:32:43.921Z,9.80
2022-12-28T11:35:24.695Z,9.90
2022-12-28T11:37:57.321Z,9.90
2022-12-28T11:40:43.841Z,9.90
2022-12-28T11:43:29.744Z,9.90
2022-12-28T11:45:59.634Z,9.90
2022-12-28T11:48:46.825Z,9.90
2022-12-28T11:51:37.805Z,9.90
2022-12-28T11:54:36.083Z,9.90
2022-12-28T11:57:04.508Z,9.90
2022-12-28T11:59:34.715Z,9.90
2022-12-28T12:02:08.634Z,9.90
2022-12-28T12:04:45.022Z,9.90
2022-12-28T12:07:31.188Z,9.90
2022-12-28T12:10:26.628Z,9.90
2022-12-28T12:12:54.540Z,9.90
2022-12-28T12:15:44.602Z,9.90
2022-12-28T12:18:22.076Z,9.90
2022-12-28T12:20:58.609Z,9.90
2022-12-28T12:23:41.434Z,9.90
2022-12-28T12:26:33.881Z,9.90
2022-12-28T12:29:17.885Z,9.90
2022-12-28T12:31:54.398Z,9.90
2022-12-28T12:34:43.778Z,9.90
2022-12-28T12:37:43.847Z,9.90
2022-12-28T12:40:49.221Z,9.90
2022-12-28T12:43:55.956Z,9.90
2022-12-28T12:46:44.695Z,10.00
2022-12-28T12:49:21.183Z,10.00
2022-12-28T12:52:20.022Z,10.00
2022-12-28T12:55:19.532Z,10.10
2022-12-28T12:57:52.909Z,10.10
2022-12-28T13:00:22.263Z,10.10
2022-12-28T13:02:55.992Z,10.10
2022-12-28T13:05:27.186Z,10.20
2022-12-28T13:07:58.206Z,10.20
2022-12-28T13:10:36.370Z,10.20
2022-12-28T13:13:05.700Z,10.30
2022-12-28T13:15:34.064Z,10.30
2022-12-28T13:21:00.755Z,10.40
2022-12-28T13:23:30.708Z,10.40
2022-12-28T13:26:01.286Z,10.40
2022-12-28T13:28:28.927Z,10.40
2022-12-28T13:31:23.745Z,10.40
2022-12-28T13:34:24.660Z,10.50
2022-12-28T13:36:59.835Z,10.50
2022-12-28T13:39:29.313Z,10.50
2022-12-28T13:42:18.967Z,10.50
2022-12-28T13:45:15.321Z,10.50
2022-12-28T13:47:47.868Z,10.50
2022-12-28T13:50:26.837Z,10.50
2022-12-28T13:53:11.780Z,10.50
2022-12-28T13:55:50.091Z,10.50
2022-12-28T13:58:23.801Z,10.60
2022-12-28T14:00:55.200Z,10.60
2022-12-28T14:03:23.531Z,10.60
2022-12-28T14:05:59.303Z,10.60
2022-12-28T14:08:28.226Z,10.60
2022-12-28T14:10:56.218Z,10.70
2022-12-28T14:13:24.556Z,10.70
2022-12-28T14:15:54.393Z,10.70
2022-12-28T14:18:22.408Z,10.70
2022-12-28T14:20:54.997Z,10.80
2022-12-28T14:23:28.375Z,10.80
2022-12-28T14:26:03.981Z,10.80
2022-12-28T14:28:36.254Z,10.80
2022-12-28T14:31:05.974Z,10.80
2022-12-28T14:34:04.574Z,10.80
2022-12-28T14:36:49.345Z,10.80
2022-12-28T14:39:34.824Z,10.80
2022-12-28T14:42:04.664Z,10.80
2022-12-28T14:44:33.577Z,10.80
2022-12-28T14:47:01.477Z,10.90
2022-12-28T14:49:29.248Z,10.90
2022-12-28T14:51:57.892Z,10.90
2022-12-28T14:54:27.657Z,10.90
2022-12-28T14:57:05.288Z,11.00
2022-12-28T14:59:37.391Z,11.00
2022-12-28T15:02:05.704Z,11.00
2022-12-28T15:04:39.726Z,11.10
2022-12-28T15:07:09.908Z,11.10
2022-12-28T15:09:37.936Z,11.10
2022-12-28T15:12:23.173Z,11.00
2022-12-28T15:14:51.003Z,11.00
2022-12-28T15:17:18.927Z,10.90
2022-12-28T15:19:46.831Z,10.90
2022-12-28T15:22:14.573Z,10.90
2022-12-28T15:24:45.461Z,10.90
2022-12-28T15:27:13.406Z,10.90
2022-12-28T15:30:05.038Z,10.80
2022-12-28T15:32:29.136Z,10.80
2022-12-28T15:34:57.944Z,10.80
2022-12-28T15:37:25.549Z,10.80
2022-12-28T15:39:53.202Z,14.10
2022-12-28T15:42:20.822Z,10.70
2022-12-28T15:47:19.699Z,10.60
2022-12-28T15:49:47.346Z,10.40
2022-12-28T15:52:15.103Z,10.30
2022-12-28T15:54:47.100Z,10.20
2022-12-28T15:57:16.040Z,10.20
2022-12-28T15:59:43.728Z,9.90
2022-12-28T16:02:12.808Z,9.80
2022-12-28T16:04:41.243Z,9.70
2022-12-28T16:07:09.338Z,9.70
2022-12-28T16:09:37.432Z,9.70
2022-12-28T16:12:05.812Z,9.50
2022-12-28T16:14:33.515Z,9.50
2022-12-28T16:17:02.390Z,9.50
2022-12-28T16:19:30.455Z,9.40
2022-12-28T16:21:58.108Z,9.30
2022-12-28T16:24:25.762Z,9.30
2022-12-28T16:26:53.640Z,9.10
2022-12-28T16:29:21.596Z,9.10
2022-12-28T16:31:49.272Z,9.20
2022-12-28T16:34:17.843Z,9.30
2022-12-28T16:36:46.797Z,9.30
2022-12-28T16:39:18.870Z,9.40
2022-12-28T16:41:48.197Z,9.60
2022-12-28T16:47:06.460Z,9.60
2022-12-28T16:49:38.875Z,9.60
2022-12-28T16:52:06.784Z,9.70
2022-12-28T16:54:37.168Z,9.70
2022-12-28T16:57:04.749Z,9.70
2022-12-28T16:59:35.089Z,9.80
2022-12-28T17:02:03.233Z,9.70
2022-12-28T17:04:33.110Z,9.80
2022-12-28T17:09:28.668Z,9.80
2022-12-28T17:11:56.418Z,9.90
2022-12-28T17:14:37.077Z,9.90
2022-12-28T17:17:07.539Z,9.90
2022-12-28T17:19:36.374Z,9.90
2022-12-28T17:24:34.973Z,9.90
2022-12-28T17:27:07.786Z,9.90
2022-12-28T17:29:37.827Z,9.90
2022-12-28T17:32:06.779Z,9.90
2022-12-28T17:34:34.790Z,9.90
2022-12-28T17:37:02.553Z,9.90
2022-12-28T17:39:34.522Z,9.90
2022-12-28T17:42:05.879Z,9.90
2022-12-28T17:44:33.529Z,10.00
2022-12-28T17:47:01.331Z,10.00
2022-12-28T17:49:28.987Z,10.00
2022-12-28T17:51:56.538Z,10.00
2022-12-28T17:56:52.114Z,9.90
2022-12-28T17:59:19.906Z,9.90
2022-12-28T18:01:47.716Z,9.90
2022-12-28T18:04:16.428Z,9.90
2022-12-28T18:06:44.035Z,9.80
2022-12-28T18:09:11.622Z,9.80
2022-12-28T18:14:07.875Z,9.80
2022-12-28T18:16:38.029Z,9.80
2022-12-28T18:19:05.661Z,9.70
2022-12-28T18:21:33.554Z,9.70
2022-12-28T18:24:01.141Z,9.60
2022-12-28T18:26:28.697Z,10.30
2022-12-28T18:28:56.908Z,9.60
2022-12-28T18:31:25.264Z,9.60
2022-12-28T18:33:53.056Z,9.40
2022-12-28T18:36:20.702Z,9.40
2022-12-28T18:38:50.067Z,9.40
2022-12-28T18:41:21.013Z,9.40
2022-12-28T18:43:51.083Z,9.40
2022-12-28T18:46:19.000Z,9.30
2022-12-28T18:48:46.703Z,9.30
2022-12-28T18:51:17.536Z,9.30
2022-12-28T18:53:45.988Z,9.30
2022-12-28T18:56:16.687Z,9.30
2022-12-28T18:58:45.512Z,9.30
2022-12-28T19:04:09.397Z,9.30
2022-12-28T19:06:37.792Z,9.30
2022-12-28T19:09:06.209Z,9.30
2022-12-28T19:11:34.606Z,9.30
2022-12-28T19:14:03.904Z,9.30
2022-12-28T19:16:32.402Z,9.40
2022-12-28T19:19:00.562Z,9.40
2022-12-28T19:21:40.102Z,9.40
2022-12-28T19:24:16.120Z,9.40
2022-12-28T19:26:45.042Z,9.40
2022-12-28T19:29:14.060Z,9.40
2022-12-28T19:31:41.885Z,9.40
2022-12-28T19:34:09.729Z,9.40
2022-12-28T19:36:37.728Z,9.40
2022-12-28T19:39:05.561Z,9.40
2022-12-28T19:41:33.251Z,9.40
2022-12-28T19:44:01.516Z,9.50
2022-12-28T19:46:32.512Z,9.40
2022-12-28T19:49:02.782Z,9.40
2022-12-28T19:51:32.510Z,9.40
2022-12-28T19:54:01.584Z,9.30
2022-12-28T19:56:29.704Z,9.30
2022-12-28T19:59:04.933Z,9.20
2022-12-28T20:01:35.000Z,9.20
2022-12-28T20:04:08.852Z,9.20
2022-12-28T20:06:41.363Z,9.10
2022-12-28T20:09:08.992Z,9.10
2022-12-28T20:11:36.972Z,9.10
2022-12-28T20:14:05.396Z,9.10
2022-12-28T20:16:35.153Z,9.00
2022-12-28T20:19:07.165Z,9.10
2022-12-28T20:21:36.374Z,9.00
2022-12-28T20:24:05.792Z,9.00
2022-12-28T20:26:33.797Z,9.00
2022-12-28T20:29:02.602Z,9.10
2022-12-28T20:31:31.338Z,9.10
2022-12-28T20:33:59.371Z,9.10
2022-12-28T20:36:29.202Z,8.90
2022-12-28T20:38:57.446Z,9.10
2022-12-28T20:41:48.314Z,9.50
2022-12-28T20:44:22.293Z,9.10
2022-12-28T20:46:50.308Z,9.10
2022-12-28T20:49:19.295Z,9.00
2022-12-28T20:51:51.029Z,9.10
2022-12-28T20:54:21.960Z,9.10
2022-12-28T20:56:55.248Z,9.10
2022-12-28T20:59:25.951Z,9.10
2022-12-28T21:01:55.468Z,9.10
2022-12-28T21:04:24.628Z,9.20
2022-12-28T21:06:55.692Z,9.10
2022-12-28T21:09:24.978Z,9.20
2022-12-28T21:11:52.603Z,9.20
2022-12-28T21:14:20.524Z,9.20
2022-12-28T21:19:30.093Z,9.30
2022-12-28T21:21:58.832Z,9.30
2022-12-28T21:24:27.323Z,9.40
2022-12-28T21:29:26.168Z,9.30
2022-12-28T21:31:54.956Z,9.30
2022-12-28T21:34:23.026Z,9.30
2022-12-28T21:36:50.747Z,9.30
2022-12-28T21:39:18.448Z,9.30
2022-12-28T21:41:49.652Z,9.30
2022-12-28T21:44:23.467Z,9.40
2022-12-28T21:46:52.981Z,9.40
2022-12-28T21:49:21.490Z,9.40
2022-12-28T21:51:51.674Z,9.50
2022-12-28T21:54:21.535Z,9.50
2022-12-28T21:56:55.233Z,8.10
2022-12-28T21:59:26.927Z,9.50
2022-12-28T22:02:13.431Z,9.50
2022-12-28T22:05:03.192Z,9.50
2022-12-28T22:07:31.952Z,9.50
2022-12-28T22:10:18.091Z,9.40
2022-12-28T22:12:55.991Z,9.50
2022-12-28T22:15:43.567Z,9.50
2022-12-28T22:18:30.162Z,9.40
2022-12-28T22:21:05.042Z,9.40
2022-12-28T22:23:35.770Z,9.50
2022-12-28T22:26:04.408Z,9.50
2022-12-28T22:28:32.047Z,9.60
2022-12-28T22:31:04.934Z,9.50
2022-12-28T22:33:32.852Z,9.60
2022-12-28T22:36:15.828Z,9.60
2022-12-28T22:38:48.837Z,9.50
2022-12-28T22:41:17.467Z,9.50
2022-12-28T22:43:50.075Z,9.50
2022-12-28T22:46:22.554Z,9.50
2022-12-28T22:48:51.707Z,9.60
2022-12-28T22:51:19.666Z,9.60
2022-12-28T22:53:50.092Z,9.50
2022-12-28T22:56:20.903Z,9.50
2022-12-28T22:58:48.992Z,9.50
2022-12-28T23:01:19.606Z,9.50
2022-12-28T23:03:48.517Z,9.50
2022-12-28T23:06:17.375Z,9.50
2022-12-28T23:11:34.943Z,9.60
2022-12-28T23:14:43.356Z,9.60
2022-12-28T23:17:15.132Z,9.60
2022-12-28T23:20:02.916Z,9.50
2022-12-28T23:22:54.072Z,9.60
2022-12-28T23:25:42.857Z,9.50
2022-12-28T23:28:13.455Z,9.50
2022-12-28T23:30:45.348Z,9.50
2022-12-28T23:35:41.797Z,9.40
2022-12-28T23:38:17.155Z,9.40
2022-12-28T23:40:53.865Z,9.40
2022-12-28T23:43:21.555Z,9.30
2022-12-28T23:45:49.454Z,9.30
2022-12-28T23:48:19.302Z,9.40
2022-12-28T23:53:30.139Z,9.40
2022-12-28T23:55:58.564Z,9.30
2022-12-28T23:58:26.296Z,9.40
